sensor_id;sensor_type;location;lat;lon;timestamp;temperature;humidity
2967;DHT22;1493;51.496;7.210;2023-08-06T00:00:48;17.00;99.90
2967;DHT22;1493;51.496;7.210;2023-08-06T00:03:15;17.00;99.90
2967;DHT22;1493;51.496;7.210;2023-08-06T00:05:42;17.10;99.90
2967;DHT22;1493;51.496;7.210;2023-08-06T00:08:09;17.00;99.90
2967;DHT22;1493;51.496;7.210;2023-08-06T00:10:39;17.00;99.90
2967;DHT22;1493;51.496;7.210;2023-08-06T00:13:05;17.00;99.90
2967;DHT22;1493;51.496;7.210;2023-08-06T00:15:32;17.00;99.90
2967;DHT22;1493;51.496;7.210;2023-08-06T00:17:59;17.00;99.90
2967;DHT22;1493;51.496;7.210;2023-08-06T00:20:26;17.00;99.90
2967;DHT22;1493;51.496;7.210;2023-08-06T00:22:52;17.00;99.90
2967;DHT22;1493;51.496;7.210;2023-08-06T00:25:19;17.00;99.90
2967;DHT22;1493;51.496;7.210;2023-08-06T00:27:47;17.00;99.90
2967;DHT22;1493;51.496;7.210;2023-08-06T00:30:14;16.90;99.90
2967;DHT22;1493;51.496;7.210;2023-08-06T00:32:41;17.00;99.90
2967;DHT22;1493;51.496;7.210;2023-08-06T00:35:08;16.90;99.90
2967;DHT22;1493;51.496;7.210;2023-08-06T00:37:35;16.90;99.90
2967;DHT22;1493;51.496;7.210;2023-08-06T00:40:02;16.90;99.90
2967;DHT22;1493;51.496;7.210;2023-08-06T00:42:29;16.90;99.90
2967;DHT22;1493;51.496;7.210;2023-08-06T00:44:57;16.90;99.90
2967;DHT22;1493;51.496;7.210;2023-08-06T00:47:24;16.90;99.90
2967;DHT22;1493;51.496;7.210;2023-08-06T00:49:51;16.90;99.90
2967;DHT22;1493;51.496;7.210;2023-08-06T00:52:18;16.90;99.90
2967;DHT22;1493;51.496;7.210;2023-08-06T00:54:45;16.90;99.90
2967;DHT22;1493;51.496;7.210;2023-08-06T00:57:12;16.80;99.90
2967;DHT22;1493;51.496;7.210;2023-08-06T00:59:39;16.80;99.90
2967;DHT22;1493;51.496;7.210;2023-08-06T01:02:07;16.80;99.90
2967;DHT22;1493;51.496;7.210;2023-08-06T01:04:34;16.80;99.90
2967;DHT22;1493;51.496;7.210;2023-08-06T01:07:07;16.80;99.90
2967;DHT22;1493;51.496;7.210;2023-08-06T01:09:45;16.80;99.90
2967;DHT22;1493;51.496;7.210;2023-08-06T01:12:18;16.80;99.90
2967;DHT22;1493;51.496;7.210;2023-08-06T01:14:52;16.80;99.90
2967;DHT22;1493;51.496;7.210;2023-08-06T01:17:24;16.70;99.90
2967;DHT22;1493;51.496;7.210;2023-08-06T01:19:52;16.70;99.90
2967;DHT22;1493;51.496;7.210;2023-08-06T01:22:20;16.70;99.90
2967;DHT22;1493;51.496;7.210;2023-08-06T01:24:50;16.70;99.90
2967;DHT22;1493;51.496;7.210;2023-08-06T01:27:23;16.70;99.90
2967;DHT22;1493;51.496;7.210;2023-08-06T01:29:59;16.70;99.90
2967;DHT22;1493;51.496;7.210;2023-08-06T01:32:30;16.70;99.90
2967;DHT22;1493;51.496;7.210;2023-08-06T01:35:00;16.70;99.90
2967;DHT22;1493;51.496;7.210;2023-08-06T01:37:29;16.70;99.90
2967;DHT22;1493;51.496;7.210;2023-08-06T01:39:56;16.70;99.90
2967;DHT22;1493;51.496;7.210;2023-08-06T01:42:23;16.70;99.90
2967;DHT22;1493;51.496;7.210;2023-08-06T01:44:49;16.70;99.90
2967;DHT22;1493;51.496;7.210;2023-08-06T01:47:16;16.70;99.90
2967;DHT22;1493;51.496;7.210;2023-08-06T01:49:43;16.70;99.90
2967;DHT22;1493;51.496;7.210;2023-08-06T01:52:10;16.70;99.90
2967;DHT22;1493;51.496;7.210;2023-08-06T01:54:38;16.70;99.90
2967;DHT22;1493;51.496;7.210;2023-08-06T01:57:05;16.80;99.90
2967;DHT22;1493;51.496;7.210;2023-08-06T01:59:32;16.80;99.90
2967;DHT22;1493;51.496;7.210;2023-08-06T02:01:59;16.80;99.90
2967;DHT22;1493;51.496;7.210;2023-08-06T02:04:26;16.80;99.90
2967;DHT22;1493;51.496;7.210;2023-08-06T02:06:52;16.70;99.90
2967;DHT22;1493;51.496;7.210;2023-08-06T02:09:19;16.70;99.90
2967;DHT22;1493;51.496;7.210;2023-08-06T02:11:47;16.80;99.90
2967;DHT22;1493;51.496;7.210;2023-08-06T02:14:14;16.80;99.90
2967;DHT22;1493;51.496;7.210;2023-08-06T02:16:41;16.80;99.90
2967;DHT22;1493;51.496;7.210;2023-08-06T02:19:08;16.80;99.90
2967;DHT22;1493;51.496;7.210;2023-08-06T02:21:34;16.80;99.90
2967;DHT22;1493;51.496;7.210;2023-08-06T02:24:01;16.80;99.90
2967;DHT22;1493;51.496;7.210;2023-08-06T02:26:28;16.80;99.90
2967;DHT22;1493;51.496;7.210;2023-08-06T02:28:56;16.80;99.90
2967;DHT22;1493;51.496;7.210;2023-08-06T02:31:23;16.70;99.90
2967;DHT22;1493;51.496;7.210;2023-08-06T02:33:50;16.80;99.90
2967;DHT22;1493;51.496;7.210;2023-08-06T02:36:17;16.80;99.90
2967;DHT22;1493;51.496;7.210;2023-08-06T02:38:44;16.80;99.90
2967;DHT22;1493;51.496;7.210;2023-08-06T02:41:10;16.70;99.90
2967;DHT22;1493;51.496;7.210;2023-08-06T02:43:37;16.70;99.90
2967;DHT22;1493;51.496;7.210;2023-08-06T02:46:05;16.70;99.90
2967;DHT22;1493;51.496;7.210;2023-08-06T02:48:32;16.70;99.90
2967;DHT22;1493;51.496;7.210;2023-08-06T02:50:59;16.70;99.90
2967;DHT22;1493;51.496;7.210;2023-08-06T02:53:26;16.70;99.90
2967;DHT22;1493;51.496;7.210;2023-08-06T02:55:53;16.70;99.90
2967;DHT22;1493;51.496;7.210;2023-08-06T02:58:20;16.70;99.90
2967;DHT22;1493;51.496;7.210;2023-08-06T03:00:59;16.60;99.90
2967;DHT22;1493;51.496;7.210;2023-08-06T03:03:27;16.60;99.90
2967;DHT22;1493;51.496;7.210;2023-08-06T03:05:54;16.60;99.90
2967;DHT22;1493;51.496;7.210;2023-08-06T03:08:21;16.60;99.90
2967;DHT22;1493;51.496;7.210;2023-08-06T03:10:48;16.50;99.90
2967;DHT22;1493;51.496;7.210;2023-08-06T03:13:15;16.50;99.90
2967;DHT22;1493;51.496;7.210;2023-08-06T03:15:42;16.50;99.90
2967;DHT22;1493;51.496;7.210;2023-08-06T03:18:09;16.50;99.90
2967;DHT22;1493;51.496;7.210;2023-08-06T03:20:37;16.50;99.90
2967;DHT22;1493;51.496;7.210;2023-08-06T03:23:04;16.50;99.90
2967;DHT22;1493;51.496;7.210;2023-08-06T03:25:30;16.40;99.90
2967;DHT22;1493;51.496;7.210;2023-08-06T03:27:57;16.40;99.90
2967;DHT22;1493;51.496;7.210;2023-08-06T03:30:24;16.40;99.90
2967;DHT22;1493;51.496;7.210;2023-08-06T03:32:51;16.40;99.90
2967;DHT22;1493;51.496;7.210;2023-08-06T03:35:17;16.40;99.90
2967;DHT22;1493;51.496;7.210;2023-08-06T03:37:46;16.40;99.90
2967;DHT22;1493;51.496;7.210;2023-08-06T03:40:14;16.40;99.90
2967;DHT22;1493;51.496;7.210;2023-08-06T03:42:40;16.40;99.90
2967;DHT22;1493;51.496;7.210;2023-08-06T03:45:08;16.30;99.90
2967;DHT22;1493;51.496;7.210;2023-08-06T03:47:35;16.40;99.90
2967;DHT22;1493;51.496;7.210;2023-08-06T03:50:02;16.40;99.90
2967;DHT22;1493;51.496;7.210;2023-08-06T03:52:29;16.40;99.90
2967;DHT22;1493;51.496;7.210;2023-08-06T03:54:57;16.40;99.90
2967;DHT22;1493;51.496;7.210;2023-08-06T03:57:24;16.40;99.90
2967;DHT22;1493;51.496;7.210;2023-08-06T03:59:50;16.40;99.90
2967;DHT22;1493;51.496;7.210;2023-08-06T04:02:17;16.40;99.90
2967;DHT22;1493;51.496;7.210;2023-08-06T04:04:44;16.40;99.90
2967;DHT22;1493;51.496;7.210;2023-08-06T04:07:11;16.40;99.90
2967;DHT22;1493;51.496;7.210;2023-08-06T04:09:53;16.40;99.90
2967;DHT22;1493;51.496;7.210;2023-08-06T04:12:22;16.40;99.90
2967;DHT22;1493;51.496;7.210;2023-08-06T04:14:49;16.40;99.90
2967;DHT22;1493;51.496;7.210;2023-08-06T04:17:16;16.40;99.90
2967;DHT22;1493;51.496;7.210;2023-08-06T04:19:46;16.40;99.90
2967;DHT22;1493;51.496;7.210;2023-08-06T04:22:13;16.30;99.90
2967;DHT22;1493;51.496;7.210;2023-08-06T04:24:40;16.40;99.90
2967;DHT22;1493;51.496;7.210;2023-08-06T04:27:07;16.40;99.90
2967;DHT22;1493;51.496;7.210;2023-08-06T04:29:35;16.40;99.90
2967;DHT22;1493;51.496;7.210;2023-08-06T04:32:05;16.40;99.90
2967;DHT22;1493;51.496;7.210;2023-08-06T04:34:32;16.40;99.90
2967;DHT22;1493;51.496;7.210;2023-08-06T04:36:59;16.40;99.90
2967;DHT22;1493;51.496;7.210;2023-08-06T04:39:26;16.50;99.90
2967;DHT22;1493;51.496;7.210;2023-08-06T04:41:52;16.40;99.90
2967;DHT22;1493;51.496;7.210;2023-08-06T04:44:21;16.40;99.90
2967;DHT22;1493;51.496;7.210;2023-08-06T04:46:49;16.50;99.90
2967;DHT22;1493;51.496;7.210;2023-08-06T04:49:16;16.40;99.90
2967;DHT22;1493;51.496;7.210;2023-08-06T04:51:42;16.40;99.90
2967;DHT22;1493;51.496;7.210;2023-08-06T04:54:09;16.40;99.90
2967;DHT22;1493;51.496;7.210;2023-08-06T04:56:36;16.40;99.90
2967;DHT22;1493;51.496;7.210;2023-08-06T04:59:03;16.40;99.90
2967;DHT22;1493;51.496;7.210;2023-08-06T05:01:30;16.40;99.90
2967;DHT22;1493;51.496;7.210;2023-08-06T05:03:58;16.40;99.90
2967;DHT22;1493;51.496;7.210;2023-08-06T05:06:25;16.40;99.90
2967;DHT22;1493;51.496;7.210;2023-08-06T05:08:52;16.30;99.90
2967;DHT22;1493;51.496;7.210;2023-08-06T05:11:21;16.40;99.90
2967;DHT22;1493;51.496;7.210;2023-08-06T05:13:47;16.30;99.90
2967;DHT22;1493;51.496;7.210;2023-08-06T05:16:14;16.30;99.90
2967;DHT22;1493;51.496;7.210;2023-08-06T05:18:41;16.40;99.90
2967;DHT22;1493;51.496;7.210;2023-08-06T05:21:09;16.40;99.90
2967;DHT22;1493;51.496;7.210;2023-08-06T05:23:36;16.40;99.90
2967;DHT22;1493;51.496;7.210;2023-08-06T05:26:05;16.50;99.90
2967;DHT22;1493;51.496;7.210;2023-08-06T05:28:35;16.50;99.90
2967;DHT22;1493;51.496;7.210;2023-08-06T05:31:08;16.50;99.90
2967;DHT22;1493;51.496;7.210;2023-08-06T05:33:34;16.60;99.90
2967;DHT22;1493;51.496;7.210;2023-08-06T05:36:01;16.60;99.90
2967;DHT22;1493;51.496;7.210;2023-08-06T05:38:30;16.60;99.90
2967;DHT22;1493;51.496;7.210;2023-08-06T05:40:56;16.70;99.90
2967;DHT22;1493;51.496;7.210;2023-08-06T05:43:23;16.70;99.90
2967;DHT22;1493;51.496;7.210;2023-08-06T05:45:50;16.70;99.90
2967;DHT22;1493;51.496;7.210;2023-08-06T05:48:17;16.80;99.90
2967;DHT22;1493;51.496;7.210;2023-08-06T05:50:44;16.80;99.90
2967;DHT22;1493;51.496;7.210;2023-08-06T05:53:11;16.90;99.90
2967;DHT22;1493;51.496;7.210;2023-08-06T05:55:40;17.00;99.90
2967;DHT22;1493;51.496;7.210;2023-08-06T05:58:07;17.00;99.90
2967;DHT22;1493;51.496;7.210;2023-08-06T06:00:33;17.10;99.90
2967;DHT22;1493;51.496;7.210;2023-08-06T06:03:00;17.10;99.90
2967;DHT22;1493;51.496;7.210;2023-08-06T06:05:27;17.10;99.90
2967;DHT22;1493;51.496;7.210;2023-08-06T06:07:54;17.20;99.90
2967;DHT22;1493;51.496;7.210;2023-08-06T06:10:21;17.20;99.90
2967;DHT22;1493;51.496;7.210;2023-08-06T06:12:49;17.30;99.90
2967;DHT22;1493;51.496;7.210;2023-08-06T06:15:16;17.30;99.90
2967;DHT22;1493;51.496;7.210;2023-08-06T06:17:43;17.30;99.90
2967;DHT22;1493;51.496;7.210;2023-08-06T06:20:10;17.40;99.90
2967;DHT22;1493;51.496;7.210;2023-08-06T06:22:37;17.40;99.90
2967;DHT22;1493;51.496;7.210;2023-08-06T06:25:05;17.50;99.90
2967;DHT22;1493;51.496;7.210;2023-08-06T06:27:32;17.50;99.90
2967;DHT22;1493;51.496;7.210;2023-08-06T06:30:00;17.60;99.90
2967;DHT22;1493;51.496;7.210;2023-08-06T06:32:26;17.60;99.90
2967;DHT22;1493;51.496;7.210;2023-08-06T06:34:54;17.60;99.90
2967;DHT22;1493;51.496;7.210;2023-08-06T06:37:21;17.70;99.90
2967;DHT22;1493;51.496;7.210;2023-08-06T06:39:47;17.80;99.90
2967;DHT22;1493;51.496;7.210;2023-08-06T06:42:14;17.80;99.90
2967;DHT22;1493;51.496;7.210;2023-08-06T06:44:41;17.80;99.90
2967;DHT22;1493;51.496;7.210;2023-08-06T06:47:10;17.90;99.90
2967;DHT22;1493;51.496;7.210;2023-08-06T06:49:36;17.90;99.90
2967;DHT22;1493;51.496;7.210;2023-08-06T06:52:04;17.90;99.90
2967;DHT22;1493;51.496;7.210;2023-08-06T06:54:31;17.90;99.90
2967;DHT22;1493;51.496;7.210;2023-08-06T06:56:58;18.00;99.90
2967;DHT22;1493;51.496;7.210;2023-08-06T06:59:24;18.00;99.90
2967;DHT22;1493;51.496;7.210;2023-08-06T07:01:51;18.10;99.90
2967;DHT22;1493;51.496;7.210;2023-08-06T07:04:19;18.10;99.90
2967;DHT22;1493;51.496;7.210;2023-08-06T07:06:47;18.10;99.90
2967;DHT22;1493;51.496;7.210;2023-08-06T07:09:14;18.20;99.90
2967;DHT22;1493;51.496;7.210;2023-08-06T07:11:41;18.20;99.90
2967;DHT22;1493;51.496;7.210;2023-08-06T07:14:09;18.30;99.90
2967;DHT22;1493;51.496;7.210;2023-08-06T07:16:36;18.30;99.90
2967;DHT22;1493;51.496;7.210;2023-08-06T07:19:02;18.40;99.90
2967;DHT22;1493;51.496;7.210;2023-08-06T07:21:32;18.50;99.90
2967;DHT22;1493;51.496;7.210;2023-08-06T07:23:59;18.40;99.90
2967;DHT22;1493;51.496;7.210;2023-08-06T07:26:26;18.40;99.90
2967;DHT22;1493;51.496;7.210;2023-08-06T07:28:52;18.40;99.90
2967;DHT22;1493;51.496;7.210;2023-08-06T07:31:19;18.50;99.90
2967;DHT22;1493;51.496;7.210;2023-08-06T07:33:46;18.50;99.90
2967;DHT22;1493;51.496;7.210;2023-08-06T07:36:14;18.50;99.90
2967;DHT22;1493;51.496;7.210;2023-08-06T07:38:42;18.60;99.90
2967;DHT22;1493;51.496;7.210;2023-08-06T07:41:09;18.60;99.90
2967;DHT22;1493;51.496;7.210;2023-08-06T07:43:36;18.60;99.90
2967;DHT22;1493;51.496;7.210;2023-08-06T07:46:03;18.60;99.90
2967;DHT22;1493;51.496;7.210;2023-08-06T07:48:31;18.50;99.90
2967;DHT22;1493;51.496;7.210;2023-08-06T07:50:57;18.50;99.90
2967;DHT22;1493;51.496;7.210;2023-08-06T07:53:25;18.50;99.90
2967;DHT22;1493;51.496;7.210;2023-08-06T07:55:56;18.40;99.90
2967;DHT22;1493;51.496;7.210;2023-08-06T07:58:24;18.40;99.90
2967;DHT22;1493;51.496;7.210;2023-08-06T08:00:51;18.40;99.90
2967;DHT22;1493;51.496;7.210;2023-08-06T08:03:18;18.40;99.90
2967;DHT22;1493;51.496;7.210;2023-08-06T08:05:46;18.40;99.90
2967;DHT22;1493;51.496;7.210;2023-08-06T08:08:13;18.40;99.90
2967;DHT22;1493;51.496;7.210;2023-08-06T08:10:40;18.50;99.90
2967;DHT22;1493;51.496;7.210;2023-08-06T08:13:08;18.50;99.90
2967;DHT22;1493;51.496;7.210;2023-08-06T08:15:35;18.60;99.90
2967;DHT22;1493;51.496;7.210;2023-08-06T08:18:02;18.70;99.90
2967;DHT22;1493;51.496;7.210;2023-08-06T08:20:29;18.70;99.90
2967;DHT22;1493;51.496;7.210;2023-08-06T08:22:58;18.80;99.90
2967;DHT22;1493;51.496;7.210;2023-08-06T08:25:26;18.90;99.90
2967;DHT22;1493;51.496;7.210;2023-08-06T08:27:53;19.00;99.90
2967;DHT22;1493;51.496;7.210;2023-08-06T08:30:21;19.10;99.90
2967;DHT22;1493;51.496;7.210;2023-08-06T08:32:50;19.10;99.90
2967;DHT22;1493;51.496;7.210;2023-08-06T08:35:17;19.20;99.90
2967;DHT22;1493;51.496;7.210;2023-08-06T08:37:44;19.30;99.90
2967;DHT22;1493;51.496;7.210;2023-08-06T08:40:11;19.30;99.90
2967;DHT22;1493;51.496;7.210;2023-08-06T08:42:38;19.30;99.90
2967;DHT22;1493;51.496;7.210;2023-08-06T08:45:07;19.30;99.90
2967;DHT22;1493;51.496;7.210;2023-08-06T08:47:40;19.40;99.90
2967;DHT22;1493;51.496;7.210;2023-08-06T08:50:08;19.40;99.90
2967;DHT22;1493;51.496;7.210;2023-08-06T08:52:38;19.40;99.90
2967;DHT22;1493;51.496;7.210;2023-08-06T08:55:07;19.40;99.90
2967;DHT22;1493;51.496;7.210;2023-08-06T08:57:34;19.40;99.90
2967;DHT22;1493;51.496;7.210;2023-08-06T09:00:01;19.50;99.90
2967;DHT22;1493;51.496;7.210;2023-08-06T09:02:28;19.60;99.90
2967;DHT22;1493;51.496;7.210;2023-08-06T09:04:58;19.70;99.90
2967;DHT22;1493;51.496;7.210;2023-08-06T09:07:31;19.80;99.90
2967;DHT22;1493;51.496;7.210;2023-08-06T09:10:01;19.90;99.90
2967;DHT22;1493;51.496;7.210;2023-08-06T09:12:29;20.00;99.90
2967;DHT22;1493;51.496;7.210;2023-08-06T09:14:56;19.90;99.90
2967;DHT22;1493;51.496;7.210;2023-08-06T09:17:23;19.90;99.90
2967;DHT22;1493;51.496;7.210;2023-08-06T09:19:50;19.80;99.90
2967;DHT22;1493;51.496;7.210;2023-08-06T09:22:18;19.70;99.90
2967;DHT22;1493;51.496;7.210;2023-08-06T09:24:45;19.60;99.90
2967;DHT22;1493;51.496;7.210;2023-08-06T09:27:12;19.50;99.90
2967;DHT22;1493;51.496;7.210;2023-08-06T09:29:43;19.50;99.90
2967;DHT22;1493;51.496;7.210;2023-08-06T09:32:10;19.40;99.90
2967;DHT22;1493;51.496;7.210;2023-08-06T09:34:39;19.30;99.90
2967;DHT22;1493;51.496;7.210;2023-08-06T09:37:09;19.20;99.90
2967;DHT22;1493;51.496;7.210;2023-08-06T09:39:39;19.20;99.90
2967;DHT22;1493;51.496;7.210;2023-08-06T09:42:06;19.10;99.90
2967;DHT22;1493;51.496;7.210;2023-08-06T09:44:33;19.10;99.90
2967;DHT22;1493;51.496;7.210;2023-08-06T09:47:01;19.10;99.90
2967;DHT22;1493;51.496;7.210;2023-08-06T09:49:40;19.00;99.90
2967;DHT22;1493;51.496;7.210;2023-08-06T09:52:10;19.00;99.90
2967;DHT22;1493;51.496;7.210;2023-08-06T09:54:39;19.00;99.90
2967;DHT22;1493;51.496;7.210;2023-08-06T09:57:06;19.00;99.90
2967;DHT22;1493;51.496;7.210;2023-08-06T09:59:33;19.10;99.90
2967;DHT22;1493;51.496;7.210;2023-08-06T10:02:01;19.20;99.90
2967;DHT22;1493;51.496;7.210;2023-08-06T10:04:29;19.20;99.90
2967;DHT22;1493;51.496;7.210;2023-08-06T10:06:56;19.30;99.90
2967;DHT22;1493;51.496;7.210;2023-08-06T10:09:24;19.30;99.90
2967;DHT22;1493;51.496;7.210;2023-08-06T10:11:52;19.40;99.90
2967;DHT22;1493;51.496;7.210;2023-08-06T10:14:24;19.40;99.90
2967;DHT22;1493;51.496;7.210;2023-08-06T10:16:52;19.40;99.90
2967;DHT22;1493;51.496;7.210;2023-08-06T10:19:20;19.50;99.90
2967;DHT22;1493;51.496;7.210;2023-08-06T10:22:08;19.60;99.90
2967;DHT22;1493;51.496;7.210;2023-08-06T10:24:46;19.60;99.90
2967;DHT22;1493;51.496;7.210;2023-08-06T10:27:20;19.80;99.90
2967;DHT22;1493;51.496;7.210;2023-08-06T10:29:49;19.80;99.90
2967;DHT22;1493;51.496;7.210;2023-08-06T10:32:16;19.90;99.90
2967;DHT22;1493;51.496;7.210;2023-08-06T10:34:54;20.00;99.90
2967;DHT22;1493;51.496;7.210;2023-08-06T10:37:24;20.10;99.90
2967;DHT22;1493;51.496;7.210;2023-08-06T10:39:51;20.20;99.90
2967;DHT22;1493;51.496;7.210;2023-08-06T10:42:27;20.30;99.90
2967;DHT22;1493;51.496;7.210;2023-08-06T10:45:18;20.30;99.90
2967;DHT22;1493;51.496;7.210;2023-08-06T10:47:46;20.40;99.90
2967;DHT22;1493;51.496;7.210;2023-08-06T10:50:14;20.50;99.90
2967;DHT22;1493;51.496;7.210;2023-08-06T10:52:42;20.50;99.90
2967;DHT22;1493;51.496;7.210;2023-08-06T10:55:09;20.60;28.60
2967;DHT22;1493;51.496;7.210;2023-08-06T10:57:40;20.70;1.00
2967;DHT22;1493;51.496;7.210;2023-08-06T11:00:08;20.80;1.00
2967;DHT22;1493;51.496;7.210;2023-08-06T11:02:38;20.70;1.00
2967;DHT22;1493;51.496;7.210;2023-08-06T11:05:06;20.80;39.20
2967;DHT22;1493;51.496;7.210;2023-08-06T11:07:33;20.70;2.80
2967;DHT22;1493;51.496;7.210;2023-08-06T11:10:04;20.80;34.20
2967;DHT22;1493;51.496;7.210;2023-08-06T11:12:31;20.70;57.40
2967;DHT22;1493;51.496;7.210;2023-08-06T11:15:00;20.60;8.20
2967;DHT22;1493;51.496;7.210;2023-08-06T11:17:29;20.50;1.00
2967;DHT22;1493;51.496;7.210;2023-08-06T11:19:56;20.50;52.20
2967;DHT22;1493;51.496;7.210;2023-08-06T11:22:25;20.50;50.20
2967;DHT22;1493;51.496;7.210;2023-08-06T11:24:53;20.50;36.90
2967;DHT22;1493;51.496;7.210;2023-08-06T11:27:20;20.40;42.40
2967;DHT22;1493;51.496;7.210;2023-08-06T11:29:47;20.40;40.40
2967;DHT22;1493;51.496;7.210;2023-08-06T11:32:15;20.40;19.90
2967;DHT22;1493;51.496;7.210;2023-08-06T11:34:43;20.50;99.90
2967;DHT22;1493;51.496;7.210;2023-08-06T11:37:10;20.60;99.90
2967;DHT22;1493;51.496;7.210;2023-08-06T11:39:37;20.90;99.90
2967;DHT22;1493;51.496;7.210;2023-08-06T11:42:06;21.10;1.80
2967;DHT22;1493;51.496;7.210;2023-08-06T11:44:35;21.20;1.00
2967;DHT22;1493;51.496;7.210;2023-08-06T11:47:03;21.20;20.60
2967;DHT22;1493;51.496;7.210;2023-08-06T11:49:39;21.20;1.00
2967;DHT22;1493;51.496;7.210;2023-08-06T11:52:12;21.10;1.00
2967;DHT22;1493;51.496;7.210;2023-08-06T11:54:39;21.10;26.90
2967;DHT22;1493;51.496;7.210;2023-08-06T11:57:06;21.20;89.80
2967;DHT22;1493;51.496;7.210;2023-08-06T11:59:33;21.50;99.90
2967;DHT22;1493;51.496;7.210;2023-08-06T12:02:02;21.60;51.50
2967;DHT22;1493;51.496;7.210;2023-08-06T12:04:30;21.40;1.00
2967;DHT22;1493;51.496;7.210;2023-08-06T12:07:06;21.30;1.00
2967;DHT22;1493;51.496;7.210;2023-08-06T12:09:35;20.90;1.00
2967;DHT22;1493;51.496;7.210;2023-08-06T12:12:04;20.70;1.00
2967;DHT22;1493;51.496;7.210;2023-08-06T12:14:31;20.60;1.90
2967;DHT22;1493;51.496;7.210;2023-08-06T12:16:57;20.40;21.80
2967;DHT22;1493;51.496;7.210;2023-08-06T12:19:25;20.10;99.90
2967;DHT22;1493;51.496;7.210;2023-08-06T12:21:52;19.90;99.90
2967;DHT22;1493;51.496;7.210;2023-08-06T12:24:20;19.60;99.90
2967;DHT22;1493;51.496;7.210;2023-08-06T12:26:47;19.30;99.90
2967;DHT22;1493;51.496;7.210;2023-08-06T12:29:14;18.90;99.90
2967;DHT22;1493;51.496;7.210;2023-08-06T12:31:40;18.60;99.90
2967;DHT22;1493;51.496;7.210;2023-08-06T12:34:07;18.40;99.90
2967;DHT22;1493;51.496;7.210;2023-08-06T12:36:34;18.10;99.90
2967;DHT22;1493;51.496;7.210;2023-08-06T12:39:01;18.00;99.90
2967;DHT22;1493;51.496;7.210;2023-08-06T12:41:29;17.80;99.90
2967;DHT22;1493;51.496;7.210;2023-08-06T12:43:56;17.60;99.90
2967;DHT22;1493;51.496;7.210;2023-08-06T12:46:22;17.50;99.90
2967;DHT22;1493;51.496;7.210;2023-08-06T12:48:49;17.20;99.90
2967;DHT22;1493;51.496;7.210;2023-08-06T12:51:16;17.10;99.90
2967;DHT22;1493;51.496;7.210;2023-08-06T12:53:43;17.00;99.90
2967;DHT22;1493;51.496;7.210;2023-08-06T12:56:10;16.80;99.90
2967;DHT22;1493;51.496;7.210;2023-08-06T12:58:38;16.70;99.90
2967;DHT22;1493;51.496;7.210;2023-08-06T13:01:05;16.70;99.90
2967;DHT22;1493;51.496;7.210;2023-08-06T13:03:32;16.50;99.90
2967;DHT22;1493;51.496;7.210;2023-08-06T13:05:59;16.40;99.90
2967;DHT22;1493;51.496;7.210;2023-08-06T13:08:25;16.40;99.90
2967;DHT22;1493;51.496;7.210;2023-08-06T13:10:52;16.20;99.90
2967;DHT22;1493;51.496;7.210;2023-08-06T13:13:19;16.10;99.90
2967;DHT22;1493;51.496;7.210;2023-08-06T13:15:47;16.00;99.90
2967;DHT22;1493;51.496;7.210;2023-08-06T13:18:14;15.90;99.90
2967;DHT22;1493;51.496;7.210;2023-08-06T13:20:41;15.80;99.90
2967;DHT22;1493;51.496;7.210;2023-08-06T13:23:08;15.80;99.90
2967;DHT22;1493;51.496;7.210;2023-08-06T13:25:34;15.70;99.90
2967;DHT22;1493;51.496;7.210;2023-08-06T13:28:02;15.70;99.90
2967;DHT22;1493;51.496;7.210;2023-08-06T13:30:29;15.70;99.90
2967;DHT22;1493;51.496;7.210;2023-08-06T13:32:57;15.70;99.90
2967;DHT22;1493;51.496;7.210;2023-08-06T13:35:24;15.70;99.90
2967;DHT22;1493;51.496;7.210;2023-08-06T13:37:51;15.70;99.90
2967;DHT22;1493;51.496;7.210;2023-08-06T13:40:18;15.70;99.90
2967;DHT22;1493;51.496;7.210;2023-08-06T13:42:45;15.70;99.90
2967;DHT22;1493;51.496;7.210;2023-08-06T13:45:12;15.70;99.90
2967;DHT22;1493;51.496;7.210;2023-08-06T13:47:38;15.80;99.90
2967;DHT22;1493;51.496;7.210;2023-08-06T13:50:08;15.70;99.90
2967;DHT22;1493;51.496;7.210;2023-08-06T13:52:35;15.80;99.90
2967;DHT22;1493;51.496;7.210;2023-08-06T13:55:02;15.80;99.90
2967;DHT22;1493;51.496;7.210;2023-08-06T13:57:29;15.90;99.90
2967;DHT22;1493;51.496;7.210;2023-08-06T13:59:56;15.90;99.90
2967;DHT22;1493;51.496;7.210;2023-08-06T14:02:23;15.90;99.90
2967;DHT22;1493;51.496;7.210;2023-08-06T14:04:51;15.90;99.90
2967;DHT22;1493;51.496;7.210;2023-08-06T14:07:20;15.90;99.90
2967;DHT22;1493;51.496;7.210;2023-08-06T14:09:46;15.90;99.90
2967;DHT22;1493;51.496;7.210;2023-08-06T14:12:14;15.90;99.90
2967;DHT22;1493;51.496;7.210;2023-08-06T14:14:41;15.90;99.90
2967;DHT22;1493;51.496;7.210;2023-08-06T14:17:08;15.90;99.90
2967;DHT22;1493;51.496;7.210;2023-08-06T14:19:35;15.80;99.90
2967;DHT22;1493;51.496;7.210;2023-08-06T14:22:02;15.90;99.90
2967;DHT22;1493;51.496;7.210;2023-08-06T14:24:30;15.90;99.90
2967;DHT22;1493;51.496;7.210;2023-08-06T14:26:57;15.90;99.90
2967;DHT22;1493;51.496;7.210;2023-08-06T14:29:23;15.90;99.90
2967;DHT22;1493;51.496;7.210;2023-08-06T14:31:51;15.90;99.90
2967;DHT22;1493;51.496;7.210;2023-08-06T14:34:18;15.90;99.90
2967;DHT22;1493;51.496;7.210;2023-08-06T14:36:44;16.00;99.90
2967;DHT22;1493;51.496;7.210;2023-08-06T14:39:11;16.00;99.90
2967;DHT22;1493;51.496;7.210;2023-08-06T14:41:39;16.00;99.90
2967;DHT22;1493;51.496;7.210;2023-08-06T14:44:06;16.00;99.90
2967;DHT22;1493;51.496;7.210;2023-08-06T14:46:33;16.00;99.90
2967;DHT22;1493;51.496;7.210;2023-08-06T14:49:00;16.00;99.90
2967;DHT22;1493;51.496;7.210;2023-08-06T14:51:27;16.00;99.90
2967;DHT22;1493;51.496;7.210;2023-08-06T14:53:54;16.00;99.90
2967;DHT22;1493;51.496;7.210;2023-08-06T14:56:20;16.00;99.90
2967;DHT22;1493;51.496;7.210;2023-08-06T14:58:50;16.00;99.90
2967;DHT22;1493;51.496;7.210;2023-08-06T15:01:16;16.00;99.90
2967;DHT22;1493;51.496;7.210;2023-08-06T15:03:43;16.10;99.90
2967;DHT22;1493;51.496;7.210;2023-08-06T15:06:10;16.10;99.90
2967;DHT22;1493;51.496;7.210;2023-08-06T15:08:37;16.10;99.90
2967;DHT22;1493;51.496;7.210;2023-08-06T15:11:04;16.10;99.90
2967;DHT22;1493;51.496;7.210;2023-08-06T15:13:30;16.10;99.90
2967;DHT22;1493;51.496;7.210;2023-08-06T15:15:59;16.10;99.90
2967;DHT22;1493;51.496;7.210;2023-08-06T15:18:25;16.10;99.90
2967;DHT22;1493;51.496;7.210;2023-08-06T15:20:52;16.20;99.90
2967;DHT22;1493;51.496;7.210;2023-08-06T15:23:19;16.20;99.90
2967;DHT22;1493;51.496;7.210;2023-08-06T15:25:46;16.20;99.90
2967;DHT22;1493;51.496;7.210;2023-08-06T15:28:12;16.20;99.90
2967;DHT22;1493;51.496;7.210;2023-08-06T15:30:39;16.30;99.90
2967;DHT22;1493;51.496;7.210;2023-08-06T15:33:12;16.30;99.90
2967;DHT22;1493;51.496;7.210;2023-08-06T15:35:38;16.40;99.90
2967;DHT22;1493;51.496;7.210;2023-08-06T15:38:05;16.40;99.90
2967;DHT22;1493;51.496;7.210;2023-08-06T15:40:32;16.30;99.90
2967;DHT22;1493;51.496;7.210;2023-08-06T15:42:59;16.30;99.90
2967;DHT22;1493;51.496;7.210;2023-08-06T15:45:26;16.30;99.90
2967;DHT22;1493;51.496;7.210;2023-08-06T15:47:53;16.30;99.90
2967;DHT22;1493;51.496;7.210;2023-08-06T15:50:21;16.30;99.90
2967;DHT22;1493;51.496;7.210;2023-08-06T15:52:48;16.20;99.90
2967;DHT22;1493;51.496;7.210;2023-08-06T15:55:15;16.10;99.90
2967;DHT22;1493;51.496;7.210;2023-08-06T15:57:42;16.20;99.90
2967;DHT22;1493;51.496;7.210;2023-08-06T16:00:10;16.20;99.90
2967;DHT22;1493;51.496;7.210;2023-08-06T16:02:37;16.20;99.90
2967;DHT22;1493;51.496;7.210;2023-08-06T16:05:04;16.20;99.90